Airfield :
LOGIN :

Register | Disclaimer

   EN    FR    IT 

 










Legend :    VFR   Marginal VFR   IFR   Intensive IFR   Very Intensive IFR
Visi :
Ceiling :
>= 8 km
>= 3000ft
5 to 8 km
1000 to 3000 ft
1500m to 5 km
500 to 1000 ft
800 to 1500m
200 to 500 ft
< 800m
< 200 ft
Symbols :   Thunderstorms  Fog  Heavy snow  Heavy precipitations  Wind > 20 kt
SIGMETs :     Misc.  Thunderstorms  Icing  Turbulence  Mountain Waves  Volcanic Ashes






- Airport Elevation : 1046 ft
- IATA code : NUE


EDDN - Nuremberg

CURRENT METAR :
  • 190650Z AUTO 17004KT 9999 -SHRA FEW///TCU 19/17 Q1014 NOSIG

EXPIRED METARs :
  • 190620Z AUTO VRB02KT 9999 -RA FEW040 19/17 Q1013 NOSIG
  • 190550Z AUTO 17007KT 9999 -SHRA FEW///TCU 19/17 Q1014 RESHRA NOSIG
  • 190520Z AUTO VRB02KT 9999 -SHRA FEW///TCU 19/17 Q1013 RESHRA TEMPO SHRA
  • 190450Z AUTO 10007KT 350V120 9999 SHRA FEW///TCU 18/17 Q1013 TEMPO NSW
  • 190420Z AUTO 14008KT 9999 SHRA FEW///TCU 19/18 Q1013 TEMPO NSW
  • 190350Z AUTO 11007KT 9000 -SHRA FEW///TCU 18/17 Q1013 RESHRA
  • 190320Z AUTO 09003KT 020V120 7000 SHRA FEW044 FEW///TCU 18/17 Q1014
  • 190250Z AUTO VRB02KT 4800 SHRA BR FEW042 FEW///TCU 18/17 Q1014 RETS
  • 190220Z AUTO VRB02KT 9999 +TSRA FEW024 FEW///CB 18/17 Q1013

TAF TAF EDDN
Valid from the 19 at 06:00 until the 20 at 06:00 UTC


190500Z 1906/2006 12007KT 9999 BKN045
TEMPO 1906/1912 SHRA SCT045CB
PROB30
TEMPO 1906/1908 4000 TSRA
BECMG 1910/1912 30008KT
PROB30
TEMPO 1912/1915 4000 TSRA SCT045CB
PROB30
TEMPO 1918/1921 BKN012
BECMG 1918/1920 VRB03KT



MET'MAP, your aeronautical weather chart ! - Copyright ORBIFLY December 2007 - Disclaimer

ORBIFLY MET'MAP TEAM :

Programming & Development : Alexandra Zaïnal
Original concept : Baudouin d'Aumeries
Technical & hardware support : Manuel Goepfert
Assistance : Marc-Olivier Méhu




SOURCES & CREDITS :

   NOAA